Rio Pico, Argentina
Current Conditions -  °F | °C
As of 3:00 PM on Tuesday 21 Oct 2014 (Local Time) from SCAP Reporting Station
Clear Clear  
Wind Chill: 55°   Ceiling: Unl
Heat Index: 55°   Visibility: NA
Dew Point: 50°   Wind: 7mph
Humidity: 82%   Direction: 220°SW
Pressure: 29.97"   Gusts: NA
Location:  44.2°S, 71.35°W
Report Text: SCAP 211800Z AUTO 22006KT 160V270 //// // NSC 13/10 Q1015
Loading
Personal Weather Stations






























Interactive Weather Map New forecast layout! Learn more

10-Day Weather Forecast

Advertisements
Track Severe Weather on mobile